Abbot Village, Maine
Current Conditions -  °F | °C
As of 7:53 AM on Wednesday 22 Oct 2014 (Local Time) from KBGR Reporting Station
Overcast Overcast  
Wind Chill: 39°   Ceiling: 10000
Heat Index: 45°   Visibility: 10mi
Dew Point: 43°   Wind: 12mph
Humidity: 93%   Direction: 20°NNE
Pressure: 30.22"   Gusts: NA
Location:  45.19°N, 69.45°W
Report Text: KBGR 221153Z 02010KT 10SM FEW075 OVC100 07/06 A3022 RMK AO2 RAB26E41 SLP233 P0000 60002 70033 T00720061 10083 20072 53009
Loading
Personal Weather Stations






























Interactive Weather Map
Tropical Storm Tracking
New forecast layout! Learn more

10-Day Weather Forecast

Advertisements
Track Severe Weather on mobile